createdAt,value
2019-05-29T00:01:19.894Z,45.65
2019-05-29T00:03:45.403Z,45.65
2019-05-29T00:06:14.349Z,45.65
2019-05-29T00:08:42.602Z,45.64
2019-05-29T00:11:10.838Z,45.66
2019-05-29T00:13:38.931Z,45.60
2019-05-29T00:16:08.178Z,45.44
2019-05-29T00:18:36.351Z,45.58
2019-05-29T00:21:04.426Z,45.60
2019-05-29T00:23:32.471Z,45.61
2019-05-29T00:26:00.592Z,45.65
2019-05-29T00:28:28.671Z,45.49
2019-05-29T00:30:56.710Z,45.56
2019-05-29T00:33:24.785Z,45.61
2019-05-29T00:35:52.861Z,45.55
2019-05-29T00:38:20.890Z,45.60
2019-05-29T00:40:48.954Z,45.51
2019-05-29T00:43:17.524Z,45.36
2019-05-29T00:45:45.810Z,45.42
2019-05-29T00:48:14.058Z,45.38
2019-05-29T00:50:42.188Z,45.46
2019-05-29T00:53:10.280Z,45.41
2019-05-29T00:55:38.291Z,45.33
2019-05-29T00:58:06.374Z,45.44
2019-05-29T01:00:34.441Z,45.37
2019-05-29T01:03:02.570Z,45.37
2019-05-29T01:05:30.694Z,45.35
2019-05-29T01:07:58.787Z,45.42
2019-05-29T01:10:27.751Z,45.33
2019-05-29T01:12:55.966Z,45.38
2019-05-29T01:15:24.099Z,45.40
2019-05-29T01:17:52.158Z,45.40
2019-05-29T01:20:20.221Z,45.35
2019-05-29T01:22:48.301Z,45.41
2019-05-29T01:25:16.586Z,45.39
2019-05-29T01:27:44.719Z,45.52
2019-05-29T01:30:13.142Z,45.40
2019-05-29T01:32:41.416Z,45.37
2019-05-29T01:35:09.511Z,45.37
2019-05-29T01:37:37.564Z,45.35
2019-05-29T01:40:19.144Z,45.33
2019-05-29T01:42:35.659Z,45.36
2019-05-29T01:45:08.118Z,45.33
2019-05-29T01:47:33.486Z,45.39
2019-05-29T01:50:01.609Z,45.34
2019-05-29T01:52:29.645Z,45.40
2019-05-29T01:54:57.698Z,45.42
2019-05-29T01:57:25.798Z,45.39
2019-05-29T01:59:53.872Z,45.29
2019-05-29T02:02:22.026Z,45.40
2019-05-29T02:04:53.873Z,45.35
2019-05-29T02:07:22.469Z,45.32
2019-05-29T02:09:50.758Z,45.23
2019-05-29T02:12:19.681Z,45.28
2019-05-29T02:14:49.135Z,45.21
2019-05-29T02:17:17.827Z,45.30
2019-05-29T02:19:46.268Z,45.17
2019-05-29T02:22:14.314Z,45.18
2019-05-29T02:24:42.507Z,45.24
2019-05-29T02:27:10.624Z,45.21
2019-05-29T02:29:40.085Z,45.20
2019-05-29T02:32:08.179Z,45.18
2019-05-29T02:34:36.679Z,45.20
2019-05-29T02:37:05.913Z,45.11
2019-05-29T02:39:33.963Z,45.19
2019-05-29T02:42:02.055Z,45.14
2019-05-29T02:44:30.088Z,45.15
2019-05-29T02:46:58.120Z,45.17
2019-05-29T02:49:28.178Z,45.16
2019-05-29T02:51:57.405Z,45.11
2019-05-29T02:54:27.292Z,45.04
2019-05-29T02:56:55.641Z,45.07
2019-05-29T02:59:25.562Z,44.98
2019-05-29T03:01:53.851Z,45.01
2019-05-29T03:04:23.849Z,45.05
2019-05-29T03:06:51.963Z,45.11
2019-05-29T03:09:20.498Z,44.99
2019-05-29T03:11:48.901Z,45.06
2019-05-29T03:14:19.754Z,44.94
2019-05-29T03:16:48.144Z,45.01
2019-05-29T03:19:16.188Z,45.02
2019-05-29T03:21:44.240Z,44.92
2019-05-29T03:24:12.301Z,44.91
2019-05-29T03:26:40.453Z,44.91
2019-05-29T03:29:08.514Z,44.87
2019-05-29T03:31:45.449Z,45.01
2019-05-29T03:34:06.727Z,44.93
2019-05-29T03:36:41.989Z,44.95
2019-05-29T03:39:06.512Z,44.92
2019-05-29T03:41:34.973Z,44.90
2019-05-29T03:44:14.178Z,44.90
2019-05-29T03:46:45.634Z,44.96
2019-05-29T03:49:13.181Z,44.90
2019-05-29T03:51:42.186Z,44.82
2019-05-29T03:54:30.584Z,44.90
2019-05-29T03:56:58.745Z,44.94
2019-05-29T03:59:28.467Z,44.84
2019-05-29T04:01:56.793Z,44.86
2019-05-29T04:04:26.774Z,44.81
2019-05-29T04:06:55.101Z,44.85
2019-05-29T04:09:23.538Z,44.82
2019-05-29T04:11:51.615Z,44.85
2019-05-29T04:14:20.173Z,44.85
2019-05-29T04:16:59.361Z,44.89
2019-05-29T04:19:19.197Z,44.84
2019-05-29T04:21:47.939Z,44.88
2019-05-29T04:24:16.050Z,44.87
2019-05-29T04:26:44.515Z,44.91
2019-05-29T04:29:12.618Z,44.93
2019-05-29T04:31:41.860Z,44.92
2019-05-29T04:34:09.899Z,44.94
2019-05-29T04:36:39.085Z,44.98
2019-05-29T04:39:13.577Z,45.01
2019-05-29T04:41:41.661Z,45.02
2019-05-29T04:44:15.632Z,45.04
2019-05-29T04:46:45.321Z,45.11
2019-05-29T04:49:21.318Z,45.14
2019-05-29T04:51:46.981Z,45.19
2019-05-29T04:54:21.366Z,45.26
2019-05-29T04:56:49.863Z,45.24
2019-05-29T04:59:17.978Z,45.23
2019-05-29T05:01:52.030Z,45.25
2019-05-29T05:04:22.987Z,45.34
2019-05-29T05:06:51.577Z,45.35
2019-05-29T05:09:21.406Z,45.34
2019-05-29T05:11:49.473Z,45.32
2019-05-29T05:14:17.894Z,45.35
2019-05-29T05:16:46.124Z,45.33
2019-05-29T05:19:16.937Z,45.33
2019-05-29T05:21:45.574Z,45.31
2019-05-29T05:24:24.178Z,45.29
2019-05-29T05:26:53.183Z,45.34
2019-05-29T05:29:21.262Z,45.36
2019-05-29T05:31:49.400Z,45.31
2019-05-29T05:34:17.545Z,45.24
2019-05-29T05:36:45.630Z,45.32
2019-05-29T05:39:13.717Z,45.30
2019-05-29T05:41:41.782Z,45.42
2019-05-29T05:44:09.848Z,45.35
2019-05-29T05:46:39.113Z,45.31
2019-05-29T05:49:07.377Z,45.36
2019-05-29T05:51:38.349Z,45.49
2019-05-29T05:54:05.219Z,45.51
2019-05-29T05:56:33.669Z,45.55
2019-05-29T05:59:01.922Z,45.59
2019-05-29T06:01:29.956Z,45.62
2019-05-29T06:03:58.015Z,45.67
2019-05-29T06:06:26.072Z,45.40
2019-05-29T06:08:54.092Z,45.42
2019-05-29T06:11:23.056Z,45.40
2019-05-29T06:13:51.124Z,45.42
2019-05-29T06:16:19.178Z,45.38
2019-05-29T06:18:47.220Z,45.40
2019-05-29T06:21:15.643Z,45.35
2019-05-29T06:23:43.857Z,45.64
2019-05-29T06:26:12.161Z,46.38
2019-05-29T06:28:41.264Z,46.68
2019-05-29T06:31:09.573Z,46.52
2019-05-29T06:33:37.606Z,46.73
2019-05-29T06:36:05.627Z,46.78
2019-05-29T06:38:33.721Z,46.71
2019-05-29T06:41:01.786Z,46.78
2019-05-29T06:43:30.262Z,46.76
2019-05-29T06:45:58.318Z,46.66
2019-05-29T06:48:41.497Z,46.82
2019-05-29T06:50:57.498Z,46.62
2019-05-29T06:53:25.878Z,45.53
2019-05-29T06:55:55.770Z,46.22
2019-05-29T06:58:24.041Z,46.35
2019-05-29T07:00:52.073Z,45.91
2019-05-29T07:03:20.115Z,45.70
2019-05-29T07:05:51.254Z,45.66
2019-05-29T07:08:35.204Z,45.51
2019-05-29T07:10:49.764Z,45.35
2019-05-29T07:13:18.860Z,45.24
2019-05-29T07:15:47.580Z,45.11
2019-05-29T07:18:15.856Z,45.10
2019-05-29T07:20:44.978Z,45.00
2019-05-29T07:23:14.046Z,44.90
2019-05-29T07:25:42.999Z,44.79
2019-05-29T07:28:11.284Z,44.75
2019-05-29T07:30:39.401Z,45.23
2019-05-29T07:33:07.456Z,44.75
2019-05-29T07:35:37.197Z,44.70
2019-05-29T07:38:05.412Z,44.61
2019-05-29T07:40:35.822Z,44.99
2019-05-29T07:43:03.203Z,44.77
2019-05-29T07:45:31.251Z,44.96
2019-05-29T07:47:59.246Z,45.04
2019-05-29T07:50:27.331Z,45.03
2019-05-29T07:52:55.437Z,45.00
2019-05-29T07:55:24.374Z,44.92
2019-05-29T07:57:52.401Z,44.84
2019-05-29T08:00:20.443Z,44.80
2019-05-29T08:02:49.495Z,44.79
2019-05-29T08:05:17.575Z,44.70
2019-05-29T08:07:45.660Z,44.63
2019-05-29T08:10:13.711Z,44.63
2019-05-29T08:12:46.797Z,44.53
2019-05-29T08:15:11.483Z,44.46
2019-05-29T08:17:39.966Z,44.46
2019-05-29T08:20:08.225Z,44.42
2019-05-29T08:22:36.368Z,44.40
2019-05-29T08:25:04.421Z,44.35
2019-05-29T08:27:32.385Z,44.22
2019-05-29T08:30:00.425Z,44.23
2019-05-29T08:32:28.465Z,44.29
2019-05-29T08:34:56.472Z,44.50
2019-05-29T08:37:24.526Z,44.61
2019-05-29T08:39:52.574Z,44.68
2019-05-29T08:42:23.665Z,44.64
2019-05-29T08:44:51.685Z,44.42
2019-05-29T08:47:19.860Z,44.31
2019-05-29T08:49:50.866Z,44.36
2019-05-29T08:52:17.652Z,44.48
2019-05-29T08:54:46.043Z,44.54
2019-05-29T08:57:14.151Z,44.57
2019-05-29T08:59:42.400Z,44.56
2019-05-29T09:02:11.722Z,44.76
2019-05-29T09:04:39.735Z,44.87
2019-05-29T09:07:07.829Z,45.17
2019-05-29T09:09:35.955Z,45.37
2019-05-29T09:12:04.004Z,45.28
2019-05-29T09:14:31.989Z,45.16
2019-05-29T09:17:00.154Z,45.03
2019-05-29T09:19:28.208Z,44.80
2019-05-29T09:21:56.215Z,44.77
2019-05-29T09:24:24.416Z,44.66
2019-05-29T09:26:52.432Z,44.75
2019-05-29T09:29:23.131Z,44.94
2019-05-29T09:31:50.257Z,45.03
2019-05-29T09:34:18.808Z,45.03
2019-05-29T09:36:47.458Z,44.92
2019-05-29T09:39:16.696Z,44.77
2019-05-29T09:41:45.378Z,44.82
2019-05-29T09:44:28.122Z,44.97
2019-05-29T09:46:43.436Z,45.07
2019-05-29T09:49:12.150Z,45.02
2019-05-29T09:51:40.157Z,44.99
2019-05-29T09:54:08.242Z,45.08
2019-05-29T09:56:36.312Z,45.25
2019-05-29T09:59:04.353Z,45.34
2019-05-29T10:01:32.361Z,45.44
2019-05-29T10:04:03.353Z,45.42
2019-05-29T10:06:30.195Z,45.47
2019-05-29T10:08:59.686Z,45.51
2019-05-29T10:11:27.874Z,45.61
2019-05-29T10:13:56.986Z,45.73
2019-05-29T10:16:25.727Z,45.73
2019-05-29T10:18:54.466Z,45.56
2019-05-29T10:21:38.661Z,45.49
2019-05-29T10:23:53.353Z,45.27
2019-05-29T10:26:21.381Z,45.15
2019-05-29T10:29:02.940Z,45.02
2019-05-29T10:31:19.236Z,44.89
2019-05-29T10:33:48.239Z,44.88
2019-05-29T10:36:16.439Z,44.86
2019-05-29T10:38:44.459Z,44.83
2019-05-29T10:41:12.444Z,44.80
2019-05-29T10:43:40.498Z,44.80
2019-05-29T10:46:08.510Z,44.82
2019-05-29T10:48:36.722Z,44.80
2019-05-29T10:51:04.723Z,44.80
2019-05-29T10:53:32.764Z,44.81
2019-05-29T10:56:00.786Z,44.63
2019-05-29T10:58:28.927Z,44.59
2019-05-29T11:00:56.997Z,44.23
2019-05-29T11:03:25.007Z,44.35
2019-05-29T11:05:53.762Z,44.22
2019-05-29T11:08:21.834Z,44.08
2019-05-29T11:10:49.993Z,44.23
2019-05-29T11:13:17.989Z,44.17
2019-05-29T11:15:46.509Z,44.00
2019-05-29T11:18:14.645Z,43.88
2019-05-29T11:20:42.893Z,43.91
2019-05-29T11:23:10.909Z,44.04
2019-05-29T11:25:38.948Z,43.90
2019-05-29T11:28:07.029Z,43.88
2019-05-29T11:30:35.146Z,43.82
2019-05-29T11:33:03.184Z,43.62
2019-05-29T11:35:31.201Z,43.88
2019-05-29T11:37:59.250Z,43.73
2019-05-29T11:40:27.352Z,43.73
2019-05-29T11:42:56.796Z,43.72
2019-05-29T11:45:25.019Z,43.79
2019-05-29T11:47:53.986Z,43.63
2019-05-29T11:50:22.757Z,43.73
2019-05-29T11:52:50.818Z,43.86
2019-05-29T11:55:18.860Z,43.75
2019-05-29T11:57:47.039Z,43.82
2019-05-29T12:00:20.351Z,43.80
2019-05-29T12:02:45.334Z,43.70
2019-05-29T12:05:13.553Z,43.70
2019-05-29T12:07:41.599Z,43.75
2019-05-29T12:10:10.031Z,43.77
2019-05-29T12:12:38.467Z,43.87
2019-05-29T12:15:13.019Z,44.04
2019-05-29T12:17:36.487Z,44.04
2019-05-29T12:20:23.850Z,44.09
2019-05-29T12:22:34.311Z,44.14
2019-05-29T12:25:02.998Z,44.24
2019-05-29T12:27:31.273Z,44.33
2019-05-29T12:29:59.295Z,44.46
2019-05-29T12:32:27.302Z,44.51
2019-05-29T12:34:57.155Z,44.61
2019-05-29T12:37:25.383Z,44.50
2019-05-29T12:39:53.559Z,44.54
2019-05-29T12:42:21.608Z,44.51
2019-05-29T12:44:49.638Z,44.42
2019-05-29T12:47:17.629Z,44.39
2019-05-29T12:49:45.676Z,44.31
2019-05-29T12:52:13.727Z,44.24
2019-05-29T12:54:41.811Z,44.24
2019-05-29T12:57:09.856Z,44.05
2019-05-29T12:59:39.970Z,44.02
2019-05-29T13:02:08.014Z,44.02
2019-05-29T13:05:05.279Z,43.99
2019-05-29T13:07:05.898Z,43.90
2019-05-29T13:09:33.917Z,43.79
2019-05-29T13:12:02.631Z,43.80
2019-05-29T13:14:30.773Z,43.76
2019-05-29T13:16:58.906Z,43.96
2019-05-29T13:19:26.912Z,44.04
2019-05-29T13:21:55.207Z,44.20
2019-05-29T13:24:23.193Z,44.20
2019-05-29T13:26:51.230Z,44.29
2019-05-29T13:29:19.330Z,44.37
2019-05-29T13:31:47.349Z,44.46
2019-05-29T13:34:15.604Z,44.97
2019-05-29T13:36:43.675Z,44.81
2019-05-29T13:39:11.742Z,44.62
2019-05-29T13:41:39.765Z,44.52
2019-05-29T13:44:07.836Z,44.44
2019-05-29T13:46:35.857Z,44.31
2019-05-29T13:49:05.021Z,44.19
2019-05-29T13:51:33.124Z,43.96
2019-05-29T13:54:06.910Z,43.95
2019-05-29T13:56:30.917Z,43.88
2019-05-29T13:58:59.859Z,43.82
2019-05-29T14:01:27.946Z,43.75
2019-05-29T14:03:56.002Z,43.63
2019-05-29T14:06:24.061Z,43.66
2019-05-29T14:08:52.141Z,43.62
2019-05-29T14:11:20.181Z,43.56
2019-05-29T14:13:48.281Z,43.80
2019-05-29T14:16:16.293Z,43.81
2019-05-29T14:18:44.473Z,43.77
2019-05-29T14:21:13.505Z,43.82
2019-05-29T14:23:43.067Z,43.86
2019-05-29T14:26:11.302Z,43.89
2019-05-29T14:28:40.273Z,43.95
2019-05-29T14:31:12.207Z,43.94
2019-05-29T14:33:40.352Z,43.93
2019-05-29T14:36:29.099Z,43.95
2019-05-29T14:38:57.187Z,43.93
2019-05-29T14:41:25.316Z,44.00
2019-05-29T14:43:53.320Z,44.02
2019-05-29T14:46:24.347Z,43.95
2019-05-29T14:48:52.606Z,43.95
2019-05-29T14:51:20.765Z,44.04
2019-05-29T14:53:48.837Z,43.97
2019-05-29T14:56:16.854Z,44.01
2019-05-29T14:58:44.902Z,44.03
2019-05-29T15:01:13.342Z,44.03
2019-05-29T15:03:41.618Z,44.03
2019-05-29T15:06:09.772Z,44.03
2019-05-29T15:08:37.971Z,44.02
2019-05-29T15:11:06.050Z,44.09
2019-05-29T15:13:34.139Z,44.03
2019-05-29T15:16:02.267Z,44.12
2019-05-29T15:18:30.318Z,44.08
2019-05-29T15:20:58.879Z,43.33
2019-05-29T15:23:29.032Z,43.60
2019-05-29T15:26:09.345Z,43.79
2019-05-29T15:28:37.679Z,43.87
2019-05-29T15:31:08.255Z,44.01
2019-05-29T15:33:56.848Z,44.14
2019-05-29T15:36:25.252Z,44.16
2019-05-29T15:38:53.697Z,44.25
2019-05-29T15:41:40.436Z,44.19
2019-05-29T15:44:08.864Z,44.21
2019-05-29T15:46:36.863Z,44.16
2019-05-29T15:49:04.909Z,44.23
2019-05-29T15:51:35.276Z,44.13
2019-05-29T15:54:03.548Z,44.17
2019-05-29T15:56:33.938Z,44.16
2019-05-29T15:59:02.600Z,44.30
2019-05-29T16:01:30.878Z,44.27
2019-05-29T16:03:58.900Z,44.38
2019-05-29T16:06:30.163Z,44.48
2019-05-29T16:09:14.210Z,44.66
2019-05-29T16:11:41.245Z,44.74
2019-05-29T16:14:10.510Z,44.92
2019-05-29T16:16:39.052Z,44.72
2019-05-29T16:19:18.380Z,45.09
2019-05-29T16:22:02.029Z,45.32
2019-05-29T16:24:35.987Z,45.91
2019-05-29T16:27:30.972Z,46.07
2019-05-29T16:29:59.520Z,46.63
2019-05-29T16:32:28.432Z,47.22
2019-05-29T16:34:56.486Z,47.60
2019-05-29T16:37:24.741Z,47.82
2019-05-29T16:39:52.750Z,48.15
2019-05-29T16:42:22.045Z,48.42
2019-05-29T16:44:50.993Z,48.78
2019-05-29T16:47:20.429Z,48.87
2019-05-29T16:49:48.551Z,49.01
2019-05-29T16:52:16.856Z,49.01
2019-05-29T16:54:45.902Z,49.01
2019-05-29T16:57:15.183Z,48.96
2019-05-29T16:59:43.382Z,48.85
2019-05-29T17:02:11.395Z,48.84
2019-05-29T17:04:39.399Z,48.61
2019-05-29T17:07:07.412Z,48.56
2019-05-29T17:09:35.429Z,48.89
2019-05-29T17:12:03.475Z,48.96
2019-05-29T17:14:31.511Z,49.06
2019-05-29T17:16:59.528Z,49.13
2019-05-29T17:19:28.474Z,49.06
2019-05-29T17:21:57.130Z,49.14
2019-05-29T17:24:26.686Z,48.89
2019-05-29T17:26:55.048Z,48.89
2019-05-29T17:29:23.236Z,48.75
2019-05-29T17:31:51.226Z,48.29
2019-05-29T17:34:19.300Z,48.57
2019-05-29T17:36:47.470Z,48.71
2019-05-29T17:39:16.896Z,49.48
2019-05-29T17:41:45.097Z,49.40
2019-05-29T17:44:13.145Z,48.59
2019-05-29T17:46:41.197Z,49.08
2019-05-29T17:49:09.267Z,47.90
2019-05-29T17:51:37.459Z,49.31
2019-05-29T17:54:07.360Z,48.54
2019-05-29T17:56:36.918Z,49.44
2019-05-29T17:59:05.268Z,50.29
2019-05-29T18:01:33.643Z,49.80
2019-05-29T18:04:01.667Z,50.27
2019-05-29T18:06:29.847Z,50.23
2019-05-29T18:08:57.885Z,50.44
2019-05-29T18:11:25.955Z,50.72
2019-05-29T18:13:54.020Z,51.08
2019-05-29T18:16:23.423Z,50.96
2019-05-29T18:18:51.770Z,51.00
2019-05-29T18:21:19.816Z,51.00
2019-05-29T18:23:47.920Z,50.74
2019-05-29T18:26:16.036Z,51.07
2019-05-29T18:28:44.045Z,50.19
2019-05-29T18:31:12.073Z,50.08
2019-05-29T18:33:40.085Z,49.64
2019-05-29T18:36:08.109Z,49.42
2019-05-29T18:38:36.096Z,49.23
2019-05-29T18:41:04.283Z,49.02
2019-05-29T18:43:32.847Z,48.99
2019-05-29T18:46:00.938Z,48.75
2019-05-29T18:48:29.478Z,48.47
2019-05-29T18:50:57.822Z,48.49
2019-05-29T18:53:27.007Z,48.49
2019-05-29T18:55:55.205Z,48.53
2019-05-29T18:58:24.141Z,48.21
2019-05-29T19:00:52.461Z,48.26
2019-05-29T19:03:21.357Z,48.43
2019-05-29T19:05:49.479Z,47.94
2019-05-29T19:08:17.576Z,48.22
2019-05-29T19:10:45.687Z,47.89
2019-05-29T19:13:13.703Z,48.04
2019-05-29T19:15:41.825Z,47.83
2019-05-29T19:18:09.876Z,48.08
2019-05-29T19:20:37.944Z,47.96
2019-05-29T19:23:06.056Z,48.04
2019-05-29T19:25:34.791Z,48.52
2019-05-29T19:28:02.865Z,49.08
2019-05-29T19:30:30.999Z,49.02
2019-05-29T19:32:59.275Z,49.37
2019-05-29T19:35:27.585Z,49.23
2019-05-29T19:37:56.030Z,49.13
2019-05-29T19:40:24.092Z,49.53
2019-05-29T19:42:54.701Z,49.30
2019-05-29T19:45:22.425Z,49.07
2019-05-29T19:47:50.550Z,49.54
2019-05-29T19:50:18.678Z,49.40
2019-05-29T19:52:46.793Z,49.54
2019-05-29T19:55:15.085Z,49.94
2019-05-29T19:57:56.149Z,49.69
2019-05-29T20:00:13.528Z,49.87
2019-05-29T20:02:41.560Z,49.66
2019-05-29T20:05:09.842Z,49.58
2019-05-29T20:07:37.928Z,49.91
2019-05-29T20:10:05.992Z,49.95
2019-05-29T20:12:34.017Z,49.91
2019-05-29T20:15:02.124Z,49.96
2019-05-29T20:17:30.226Z,49.98
2019-05-29T20:19:58.295Z,49.74
2019-05-29T20:22:26.320Z,49.75
2019-05-29T20:24:54.436Z,49.88
2019-05-29T20:27:22.530Z,49.81
2019-05-29T20:29:50.629Z,50.04
2019-05-29T20:32:18.726Z,49.96
2019-05-29T20:34:48.003Z,49.98
2019-05-29T20:37:16.047Z,50.10
2019-05-29T20:39:44.118Z,49.93
2019-05-29T20:42:12.144Z,50.17
2019-05-29T20:44:40.211Z,50.30
2019-05-29T20:47:08.273Z,50.12
2019-05-29T20:49:37.997Z,50.01
2019-05-29T20:52:06.467Z,50.19
2019-05-29T20:54:35.588Z,50.09
2019-05-29T20:57:11.285Z,50.42
2019-05-29T20:59:39.959Z,50.27
2019-05-29T21:02:08.318Z,50.22
2019-05-29T21:04:36.465Z,50.29
2019-05-29T21:07:04.567Z,50.25
2019-05-29T21:09:33.258Z,50.10
2019-05-29T21:12:01.310Z,50.20
2019-05-29T21:14:29.686Z,50.19
2019-05-29T21:16:57.739Z,50.35
2019-05-29T21:19:26.103Z,50.23
2019-05-29T21:21:54.169Z,50.25
2019-05-29T21:24:22.214Z,50.28
2019-05-29T21:26:50.241Z,50.21
2019-05-29T21:29:18.683Z,50.34
2019-05-29T21:31:46.758Z,50.40
2019-05-29T21:34:15.018Z,50.23
2019-05-29T21:36:44.169Z,50.45
2019-05-29T21:39:12.922Z,50.42
2019-05-29T21:41:42.475Z,50.46
2019-05-29T21:44:10.661Z,50.30
2019-05-29T21:46:38.880Z,50.26
2019-05-29T21:49:07.017Z,50.48
2019-05-29T21:51:35.068Z,50.54
2019-05-29T21:54:03.220Z,50.37
2019-05-29T21:56:31.540Z,50.28
2019-05-29T21:59:03.856Z,50.06
2019-05-29T22:01:29.516Z,50.32
2019-05-29T22:03:57.653Z,50.27
2019-05-29T22:06:25.664Z,50.03
2019-05-29T22:08:53.779Z,50.03
2019-05-29T22:11:21.849Z,49.96
2019-05-29T22:14:08.686Z,49.95
2019-05-29T22:16:36.718Z,49.70
2019-05-29T22:19:06.024Z,49.77
2019-05-29T22:21:34.067Z,49.84
2019-05-29T22:24:02.095Z,49.87
2019-05-29T22:26:30.126Z,49.66
2019-05-29T22:29:12.300Z,49.68
2019-05-29T22:31:27.953Z,49.64
2019-05-29T22:33:55.986Z,49.64
2019-05-29T22:36:24.031Z,49.91
2019-05-29T22:38:53.379Z,49.74
2019-05-29T22:41:21.525Z,49.59
2019-05-29T22:43:51.440Z,49.82
2019-05-29T22:46:19.563Z,49.82
2019-05-29T22:48:47.606Z,49.71
2019-05-29T22:51:15.610Z,49.68
2019-05-29T22:53:43.682Z,49.63
2019-05-29T22:56:11.706Z,49.80
2019-05-29T22:58:39.739Z,49.79
2019-05-29T23:01:07.789Z,49.58
2019-05-29T23:03:35.887Z,49.48
2019-05-29T23:06:03.900Z,49.49
2019-05-29T23:08:31.905Z,49.44
2019-05-29T23:11:00.364Z,49.41
2019-05-29T23:13:28.544Z,49.55
2019-05-29T23:15:56.689Z,49.58
2019-05-29T23:18:24.741Z,49.53
2019-05-29T23:20:52.783Z,49.55
2019-05-29T23:23:20.974Z,49.76
2019-05-29T23:25:49.024Z,49.98
2019-05-29T23:28:17.082Z,49.89
2019-05-29T23:30:45.127Z,50.02
2019-05-29T23:33:13.181Z,50.09
2019-05-29T23:35:41.315Z,50.22
2019-05-29T23:38:09.385Z,49.97
2019-05-29T23:40:37.431Z,50.16
2019-05-29T23:43:05.575Z,50.22
2019-05-29T23:45:33.604Z,50.17
2019-05-29T23:48:01.881Z,50.21
2019-05-29T23:50:30.158Z,50.29
2019-05-29T23:52:59.608Z,50.32
2019-05-29T23:55:27.815Z,50.54
2019-05-29T23:57:55.903Z,50.41
